Time;durP1;ratioP1;P1;durP2;ratioP2;P2;SDS_P1;SDS_P2;PMS_P1;PMS_P2;Temp;Humidity;BMP_temperature;BMP_pressure;BME280_temperature;BME280_humidity;BME280_pressure;Samples;Min_cycle;Max_cycle;Signal;HPM_P1;HPM_P2
2022/07/10 00:00:37;;;;;;;1.85;0.72;;;;;;;18.98;52.52;100005.99;1852453;106;26524;-82
2022/07/10 00:04:27;;;;;;;2.25;0.70;;;;;;;18.92;52.71;99998.16;1880436;101;30876;-82
2022/07/10 00:08:26;;;;;;;1.25;1.15;;;;;;;18.90;53.13;100002.59;1960837;99;26011;-82
2022/07/10 00:11:51;;;;;;;1.27;0.80;;;;;;;18.98;53.22;100000.25;1962157;99;26034;-82
2022/07/10 00:15:22;;;;;;;1.85;0.90;;;;;;;19.01;53.26;100009.91;1964440;99;25820;-82
2022/07/10 00:18:57;;;;;;;1.67;0.95;;;;;;;18.97;53.40;99999.84;1965543;99;25736;-81
2022/07/10 00:22:21;;;;;;;3.47;0.88;;;;;;;18.92;53.52;99997.70;1966590;99;25823;-80
2022/07/10 00:26:20;;;;;;;1.55;0.90;;;;;;;18.88;53.75;99998.66;1966376;99;25780;-80
2022/07/10 00:30:01;;;;;;;1.98;1.10;;;;;;;18.87;54.02;99998.25;1991559;97;25847;-80
2022/07/10 00:33:37;;;;;;;1.27;0.65;;;;;;;18.75;54.21;99996.66;2058290;92;25939;-80
2022/07/10 00:37:36;;;;;;;1.82;1.00;;;;;;;18.72;54.51;99987.47;2008569;97;25702;-80
2022/07/10 00:41:02;;;;;;;1.40;0.80;;;;;;;18.75;54.62;99981.27;2028048;95;26367;-80
2022/07/10 00:44:28;;;;;;;5.15;0.85;;;;;;;18.72;54.65;99982.64;2029606;93;25932;-80
2022/07/10 00:47:56;;;;;;;0.80;0.70;;;;;;;18.75;54.77;99978.63;2040784;95;25805;-81
2022/07/10 00:51:58;;;;;;;1.98;0.93;;;;;;;18.77;54.91;99978.17;2050392;95;26213;-81
2022/07/10 00:55:27;;;;;;;1.10;0.90;;;;;;;18.66;55.11;99979.60;2037408;95;25772;-82
2022/07/10 00:59:31;;;;;;;;;;;;;;;;;;;;;
2022/07/10 01:03:11;;;;;;;3.27;1.30;;;;;;;18.60;55.60;99972.67;1962704;99;25869;-82
2022/07/10 01:06:32;;;;;;;1.02;0.80;;;;;;;18.52;55.73;99969.27;1982642;98;25875;-81
2022/07/10 01:10:06;;;;;;;6.70;1.00;;;;;;;18.48;56.06;99971.98;1996874;98;25847;-82
2022/07/10 01:13:42;;;;;;;;;;;;;;;;;;;;;
2022/07/10 01:21:36;;;;;;;1.42;1.02;;;;;;;18.40;56.51;99957.14;2017522;96;26287;-84
2022/07/10 01:25:32;;;;;;;1.62;1.10;;;;;;;18.35;56.66;99956.32;2015588;96;25782;-82
2022/07/10 01:29:22;;;;;;;3.33;0.82;;;;;;;18.37;56.72;99951.04;1997815;91;26131;-82
2022/07/10 01:32:45;;;;;;;2.10;0.90;;;;;;;18.26;56.93;99941.97;2016720;97;25903;-82
2022/07/10 01:41:02;;;;;;;2.22;1.10;;;;;;;18.04;57.42;99938.75;1966338;100;25901;-82
2022/07/10 01:44:54;;;;;;;;;;;;;;;;;;;;;
2022/07/10 01:48:41;;;;;;;4.40;1.10;;;;;;;18.00;57.75;99934.42;1958629;99;26278;-81
2022/07/10 01:52:22;;;;;;;1.70;1.10;;;;;;;18.00;57.82;99933.55;1987594;98;26537;-81
2022/07/10 01:55:56;;;;;;;1.80;0.90;;;;;;;18.00;57.83;99929.59;1957495;100;25822;-82
2022/07/10 01:59:19;;;;;;;2.37;0.88;;;;;;;17.89;57.95;99920.07;1924504;101;25849;-88
2022/07/10 02:10:45;;;;;;;1.85;0.70;;;;;;;17.77;58.48;99918.91;1963082;99;25765;-82
2022/07/10 02:14:14;;;;;;;1.20;0.70;;;;;;;17.95;58.16;99915.14;1964010;100;25770;-83
2022/07/10 02:17:55;;;;;;;1.65;1.07;;;;;;;17.98;58.03;99924.78;1950955;99;25971;-80
2022/07/10 02:22:11;;;;;;;4.10;1.00;;;;;;;17.97;57.99;99912.50;1998496;96;25718;-82
2022/07/10 02:25:32;;;;;;;3.72;1.55;;;;;;;17.92;57.94;99917.39;2008722;96;25946;-81
2022/07/10 02:29:24;;;;;;;3.95;1.02;;;;;;;17.97;58.02;99916.45;2009560;96;25797;-81
2022/07/10 02:32:40;;;;;;;3.72;1.62;;;;;;;17.97;57.93;99914.68;2008824;95;25803;-83
2022/07/10 02:36:44;;;;;;;1.10;1.00;;;;;;;17.96;58.02;99913.40;2021638;96;26193;-83
2022/07/10 02:40:39;;;;;;;4.33;1.00;;;;;;;17.96;58.12;99917.35;2021111;96;26205;-82
2022/07/10 02:45:10;;;;;;;1.55;1.30;;;;;;;17.93;58.16;99918.26;2028301;94;25847;-82
2022/07/10 02:52:38;;;;;;;1.22;0.98;;;;;;;18.01;58.13;99907.14;2143230;90;25716;-82
2022/07/10 02:56:15;;;;;;;3.17;1.22;;;;;;;17.99;58.21;99911.59;2121936;92;25677;-82
2022/07/10 02:59:51;;;;;;;3.85;1.32;;;;;;;18.00;58.16;99905.41;2126692;92;26031;-83
2022/07/10 03:03:28;;;;;;;7.73;1.43;;;;;;;18.04;58.24;99896.55;2132254;91;26251;-83
2022/07/10 03:07:11;;;;;;;8.60;1.65;;;;;;;18.05;58.21;99898.73;2133923;92;25853;-82
2022/07/10 03:10:52;;;;;;;3.52;1.25;;;;;;;17.99;58.29;99904.09;2065685;95;26523;-82
2022/07/10 03:14:27;;;;;;;3.60;1.25;;;;;;;18.00;58.31;99901.45;2073085;93;25764;-86
2022/07/10 03:18:11;;;;;;;2.47;1.92;;;;;;;18.01;58.22;99901.86;2033799;96;25795;-83
2022/07/10 03:21:45;;;;;;;1.95;1.15;;;;;;;18.05;58.20;99893.45;2035420;90;25710;-82
2022/07/10 03:25:40;;;;;;;;;;;;;;;;;;;;;
2022/07/10 03:29:17;;;;;;;2.95;1.50;;;;;;;18.00;58.28;99908.50;2021387;95;25805;-82
2022/07/10 03:33:04;;;;;;;4.05;1.30;;;;;;;17.87;58.40;99903.84;1966072;97;26349;-83
2022/07/10 03:36:41;;;;;;;6.72;1.37;;;;;;;17.88;58.55;99905.12;1909880;102;25901;-82
2022/07/10 03:40:21;;;;;;;2.67;1.30;;;;;;;17.93;58.43;99904.63;1905840;97;26027;-81
2022/07/10 03:43:44;;;;;;;2.25;1.85;;;;;;;17.94;58.45;99901.08;1909292;102;25813;-84
2022/07/10 03:47:20;;;;;;;1.10;1.00;;;;;;;17.98;58.44;99899.27;1888672;103;31528;-82
2022/07/10 03:51:01;;;;;;;2.02;1.30;;;;;;;18.01;58.50;99894.41;1873356;102;25909;-82
2022/07/10 03:54:47;;;;;;;3.45;1.35;;;;;;;18.02;58.51;99887.80;1906178;101;25925;-83
2022/07/10 03:58:11;;;;;;;1.45;1.35;;;;;;;17.99;58.58;99891.80;1947082;100;25818;-83
2022/07/10 04:05:53;;;;;;;5.20;1.22;;;;;;;18.02;58.57;99895.72;1951719;99;25905;-82
2022/07/10 04:09:39;;;;;;;8.88;1.72;;;;;;;18.08;58.64;99898.69;2045164;93;25874;-82
2022/07/10 04:13:35;;;;;;;1.50;0.90;;;;;;;18.24;58.46;99905.94;2040361;96;25812;-81
2022/07/10 04:17:33;;;;;;;1.57;0.93;;;;;;;18.39;58.13;99901.30;1976022;98;26620;-81
2022/07/10 04:21:42;;;;;;;4.40;1.20;;;;;;;18.56;57.63;99904.98;2020667;97;25434;-81
2022/07/10 04:25:10;;;;;;;;;;;;;;;18.60;57.25;99907.13;2057117;96;25641;-81
2022/07/10 04:29:02;;;;;;;6.40;1.52;;;;;;;18.58;57.13;99911.55;2044367;96;25762;-83
2022/07/10 04:32:25;;;;;;;3.90;1.02;;;;;;;18.51;57.22;99907.27;2047473;93;25934;-83
2022/07/10 04:36:13;;;;;;;2.05;1.27;;;;;;;18.59;56.94;99907.55;2043578;96;25804;-81
2022/07/10 04:39:57;;;;;;;3.30;1.32;;;;;;;18.53;57.04;99906.36;2048642;93;26306;-81
2022/07/10 04:43:22;;;;;;;3.90;1.27;;;;;;;18.53;57.07;99905.03;2053498;96;25793;-82
2022/07/10 04:47:27;;;;;;;2.35;0.93;;;;;;;18.59;57.03;99902.27;2058022;96;25768;-81
2022/07/10 04:51:25;;;;;;;4.70;0.85;;;;;;;18.72;56.75;99899.46;2080735;94;25791;-84
2022/07/10 04:55:14;;;;;;;1.27;0.98;;;;;;;18.91;56.37;99894.73;1997895;96;25777;-82
2022/07/10 04:58:57;;;;;;;1.10;0.70;;;;;;;19.08;56.11;99888.23;2007630;96;25511;-83
2022/07/10 05:05:54;;;;;;;1.87;1.00;;;;;;;19.47;55.14;99884.39;1920686;102;25943;-84
2022/07/10 05:09:22;;;;;;;2.27;0.95;;;;;;;19.55;54.57;99889.05;1924004;99;26278;-84
2022/07/10 05:12:45;;;;;;;2.35;0.90;;;;;;;19.59;54.00;99888.53;1905659;102;25794;-80
2022/07/10 05:16:51;;;;;;;6.03;0.90;;;;;;;19.54;53.91;99883.78;1876903;104;25914;-82
2022/07/10 05:20:23;;;;;;;3.02;1.25;;;;;;;19.59;53.69;99887.21;1912525;102;25848;-82
2022/07/10 05:23:44;;;;;;;3.58;0.90;;;;;;;19.74;53.57;99885.61;1918718;103;25947;-82
2022/07/10 05:27:25;;;;;;;;;;;;;;;;;;;;;
2022/07/10 05:35:30;;;;;;;;;;;;;;;;;;;;;
2022/07/10 05:39:05;;;;;;;2.30;0.70;;;;;;;20.22;52.17;99877.45;1902928;100;25874;-80
2022/07/10 05:42:43;;;;;;;2.45;0.70;;;;;;;20.33;51.81;99876.31;1882029;102;26154;-82
2022/07/10 05:46:12;;;;;;;2.60;0.72;;;;;;;20.38;51.60;99883.67;1928743;101;25764;-81
2022/07/10 05:49:33;;;;;;;1.53;0.83;;;;;;;20.49;51.13;99873.70;1929358;101;26037;-82
2022/07/10 05:52:59;;;;;;;3.70;0.90;;;;;;;20.48;50.98;99871.48;1927599;101;25777;-82
2022/07/10 05:56:32;;;;;;;3.95;0.70;;;;;;;20.55;50.80;99870.05;1882288;103;25826;-82
2022/07/10 06:00:15;;;;;;;5.25;1.12;;;;;;;20.73;50.57;99873.56;1885052;103;26013;-81
2022/07/10 06:03:52;;;;;;;2.60;0.65;;;;;;;20.83;49.65;99871.55;1913323;101;26515;-81
2022/07/10 06:07:32;;;;;;;3.80;0.88;;;;;;;20.78;49.72;99873.43;1933945;102;25806;-81
2022/07/10 06:11:07;;;;;;;1.85;0.90;;;;;;;20.88;49.52;99872.28;1937756;96;25839;-81
2022/07/10 06:14:57;;;;;;;4.97;1.55;;;;;;;20.95;49.30;99877.36;1768797;109;25817;-83
2022/07/10 06:18:24;;;;;;;2.83;0.80;;;;;;;21.07;49.39;99875.31;1793765;108;25806;-82
2022/07/10 06:22:33;;;;;;;3.55;0.95;;;;;;;21.23;49.22;99873.52;1832921;101;25969;-82
2022/07/10 06:30:22;;;;;;;2.33;1.10;;;;;;;21.40;48.80;99876.18;1782694;109;25948;-82
2022/07/10 06:34:02;;;;;;;9.23;1.12;;;;;;;21.40;48.64;99873.06;1805660;107;25828;-82
2022/07/10 06:37:38;;;;;;;1.90;0.90;;;;;;;21.32;48.91;99868.85;1834555;106;25990;-82
2022/07/10 06:41:44;;;;;;;;;;;;;;;;;;;;;
2022/07/10 06:49:33;;;;;;;1.90;1.10;;;;;;;21.12;48.91;99861.45;1783972;109;26190;-82
2022/07/10 07:01:36;;;;;;;1.90;0.95;;;;;;;21.29;49.23;99864.50;1760497;110;25909;-81
2022/07/10 07:09:49;;;;;;;2.12;1.20;;;;;;;21.74;48.75;99874.72;1774170;108;26065;-81
2022/07/10 07:13:28;;;;;;;7.67;1.05;;;;;;;22.00;48.33;99863.27;1824118;106;35529;-83
2022/07/10 07:17:20;;;;;;;1.95;0.90;;;;;;;22.32;47.84;99872.05;1801706;109;25821;-84
2022/07/10 07:24:58;;;;;;;3.50;1.00;;;;;;;22.94;46.20;99877.49;1841298;106;26013;-83
2022/07/10 07:28:42;;;;;;;2.22;0.88;;;;;;;23.50;45.76;99875.43;1804507;107;25729;-88
2022/07/10 07:32:18;;;;;;;6.97;0.90;;;;;;;24.02;44.73;99868.11;1816219;107;26363;-82
2022/07/10 07:35:44;;;;;;;2.90;1.00;;;;;;;24.65;44.08;99868.69;1818277;108;25341;-84
2022/07/10 07:39:22;;;;;;;2.50;0.80;;;;;;;25.04;43.04;99859.44;1822196;105;25874;-83
2022/07/10 07:43:06;;;;;;;5.03;1.05;;;;;;;25.41;42.39;99858.67;1843037;105;25878;-83
2022/07/10 07:46:44;;;;;;;1.72;0.57;;;;;;;25.65;41.74;99858.00;1851572;105;25773;-84
2022/07/10 07:50:32;;;;;;;2.47;1.00;;;;;;;25.86;40.61;99857.48;1841771;101;25978;-83
2022/07/10 07:57:29;;;;;;;1.70;1.00;;;;;;;25.92;39.93;99857.66;1866355;104;25868;-81
2022/07/10 08:01:28;;;;;;;1.50;0.80;;;;;;;25.84;39.82;99858.00;1890051;103;25809;-83
2022/07/10 08:05:06;;;;;;;2.15;0.70;;;;;;;25.63;39.42;99858.53;1881586;103;25730;-82
2022/07/10 08:08:54;;;;;;;2.27;0.60;;;;;;;25.46;39.34;99857.59;1879064;103;25840;-80
2022/07/10 08:13:04;;;;;;;3.60;0.82;;;;;;;25.31;38.51;99860.47;1878204;102;25790;-78
2022/07/10 08:16:34;;;;;;;2.35;0.70;;;;;;;24.53;38.76;99859.87;1867946;104;25847;-81
2022/07/10 08:19:55;;;;;;;2.30;0.90;;;;;;;24.53;39.57;99866.06;1877069;100;25803;-87
2022/07/10 08:23:26;;;;;;;6.08;0.72;;;;;;;24.61;39.44;99865.77;1851063;104;25354;-86
2022/07/10 08:27:12;;;;;;;;;;;;;;;;;;;;;
2022/07/10 08:30:52;;;;;;;;;;;;;;;;;;;;;
2022/07/10 08:34:23;;;;;;;4.85;1.00;;;;;;;24.97;39.42;99868.61;1925682;97;25781;-83
2022/07/10 08:38:06;;;;;;;1.47;0.70;;;;;;;25.27;39.16;99865.55;1929680;100;26221;-85
2022/07/10 08:41:46;;;;;;;2.92;0.60;;;;;;;25.24;39.45;99866.55;1865614;104;25928;-82
2022/07/10 08:45:54;;;;;;;2.75;0.72;;;;;;;25.19;38.99;99864.10;1883722;103;25811;-81
2022/07/10 08:49:36;;;;;;;2.95;0.60;;;;;;;25.21;38.85;99872.02;1873879;104;25835;-83
2022/07/10 08:53:56;;;;;;;;;;;;;;;;;;;;;
2022/07/10 08:57:39;;;;;;;;;;;;;;;;;;;;;
2022/07/10 09:00:54;;;;;;;4.08;0.90;;;;;;;25.73;38.36;99858.97;1961005;100;25801;-88
2022/07/10 09:05:11;;;;;;;1.92;0.80;;;;;;;26.30;37.99;99856.25;1962140;99;25766;-88
2022/07/10 09:13:10;;;;;;;5.20;0.70;;;;;;;27.30;36.58;99846.64;1929328;101;25894;-88
2022/07/10 09:17:15;;;;;;;3.17;1.00;;;;;;;27.81;36.11;99839.42;1887110;101;25789;-92
2022/07/10 09:21:17;;;;;;;4.33;0.85;;;;;;;27.40;34.92;99835.83;1930329;100;25864;-88
2022/07/10 09:25:45;;;;;;;;;;;;;;;;;;;;;
2022/07/10 09:30:24;;;;;;;;;;;;;;;;;;;;;
2022/07/10 09:39:38;;;;;;;;;;;;;;;;;;;;;
2022/07/10 09:44:07;;;;;;;6.50;1.00;;;;;;;26.94;34.30;99846.30;1811045;107;25756;-89
2022/07/10 09:48:12;;;;;;;;;;;;;;;;;;;;;
2022/07/10 09:52:05;;;;;;;;;;;;;;;;;;;;;
2022/07/10 09:55:48;;;;;;;3.67;0.60;;;;;;;26.29;35.84;99839.80;1763421;109;26100;-89
2022/07/10 09:59:53;;;;;;;1.35;0.57;;;;;;;26.28;36.03;99845.62;1693159;115;26423;-91
2022/07/10 10:12:37;;;;;;;;;;;;;;;;;;;;;
2022/07/10 10:16:31;;;;;;;3.25;0.60;;;;;;;26.89;33.65;99840.80;1740986;111;26100;-89
2022/07/10 10:20:44;;;;;;;5.37;1.12;;;;;;;26.47;34.55;99850.06;1725164;108;25907;-87
2022/07/10 10:24:21;;;;;;;5.80;0.60;;;;;;;26.67;34.48;99847.75;1758469;110;25881;-86
2022/07/10 10:28:01;;;;;;;3.65;0.40;;;;;;;26.98;33.86;99845.67;1723075;113;26040;-84
2022/07/10 10:31:50;;;;;;;2.85;0.40;;;;;;;26.92;33.81;99852.67;1835138;100;25848;-84
2022/07/10 10:35:52;;;;;;;4.00;0.30;;;;;;;27.20;34.19;99834.26;1911451;98;25619;-81
2022/07/10 10:43:41;;;;;;;4.10;0.50;;;;;;;27.24;33.12;99836.30;1869225;103;25829;-81
2022/07/10 10:47:26;;;;;;;1.85;0.35;;;;;;;27.40;33.31;99834.96;1856010;103;25939;-80
2022/07/10 10:51:16;;;;;;;1.60;0.60;;;;;;;27.59;33.06;99831.67;1875930;100;25777;-81
2022/07/10 11:00:28;;;;;;;1.95;0.55;;;;;;;28.25;33.20;99831.98;1860915;102;25767;-82
2022/07/10 11:04:19;;;;;;;7.17;0.57;;;;;;;28.43;32.99;99834.94;1831863;106;25815;-81
2022/07/10 11:12:32;;;;;;;4.92;0.60;;;;;;;28.44;31.65;99815.20;1837490;107;25761;-84
2022/07/10 11:16:35;;;;;;;;;;;;;;;;;;;;;
2022/07/10 11:29:08;;;;;;;2.80;0.60;;;;;;;28.13;30.90;99819.28;1953448;98;26421;-84
2022/07/10 11:32:59;;;;;;;7.35;0.50;;;;;;;28.10;30.94;99824.82;1891325;102;25886;-83
2022/07/10 11:50:59;;;;;;;;;;;;;;;;;;;;;
2022/07/10 11:55:36;;;;;;;;;;;;;;;;;;;;;
2022/07/10 12:08:55;;;;;;;;;;;;;;;;;;;;;
2022/07/10 12:14:18;;;;;;;;;;;;;;;;;;;;;
2022/07/10 12:30:11;;;;;;;0.80;0.50;;;;;;;28.05;32.97;99833.61;1774157;108;25856;-84
2022/07/10 12:43:52;;;;;;;2.55;0.70;;;;;;;28.35;32.69;99840.32;1865990;104;25871;-82
2022/07/10 13:22:19;;;;;;;1.75;0.80;;;;;;;27.41;36.44;99842.93;1912688;98;25897;-84
2022/07/10 13:26:17;;;;;;;0.98;0.50;;;;;;;27.12;36.60;99854.30;1805122;106;26151;-80
2022/07/10 13:29:59;;;;;;;;;;;;;;;;;;;;;
2022/07/10 13:34:02;;;;;;;1.57;0.75;;;;;;;26.05;37.65;99888.16;1791238;109;26046;-81
2022/07/10 13:37:42;;;;;;;2.98;1.25;;;;;;;25.41;38.53;99892.47;1803578;108;25608;-79
2022/07/10 13:41:26;;;;;;;9.05;2.55;;;;;;;25.12;39.05;99897.80;1825303;106;26089;-81
2022/07/10 13:45:01;;;;;;;4.92;0.93;;;;;;;24.80;39.76;99897.34;1828793;106;25839;-79
2022/07/10 13:48:46;;;;;;;1.75;0.70;;;;;;;24.42;40.66;99897.16;1849994;105;26667;-81
2022/07/10 13:52:27;;;;;;;2.92;0.70;;;;;;;23.97;41.48;99887.41;1886909;103;25891;-82
2022/07/10 13:56:20;;;;;;;2.10;0.70;;;;;;;23.60;42.39;99880.41;1848368;106;25839;-81
2022/07/10 13:59:56;;;;;;;2.72;0.70;;;;;;;23.67;43.09;99869.94;1764451;108;26509;-83
2022/07/10 14:07:18;;;;;;;1.47;0.60;;;;;;;23.89;43.91;99866.86;1894556;100;25964;-81
2022/07/10 14:10:58;;;;;;;2.25;0.60;;;;;;;23.98;43.88;99870.96;1893235;102;25801;-94
2022/07/10 14:14:31;;;;;;;1.50;0.60;;;;;;;24.01;43.93;99865.05;1889776;102;25823;-83
2022/07/10 14:18:03;;;;;;;1.60;0.50;;;;;;;24.11;43.76;99864.69;1895036;102;25947;-81
2022/07/10 14:26:02;;;;;;;;;;;;;;;;;;;;;
2022/07/10 14:33:22;;;;;;;0.95;0.40;;;;;;;24.17;42.94;99867.97;2044550;93;25959;-86
2022/07/10 14:36:58;;;;;;;1.55;0.47;;;;;;;23.95;43.09;99879.06;2135761;90;25480;-83
2022/07/10 14:44:27;;;;;;;1.62;0.50;;;;;;;23.62;43.31;99896.70;2249734;87;25919;-83
2022/07/10 14:52:07;;;;;;;0.50;0.30;;;;;;;23.44;43.61;99908.91;2100014;92;26034;-85
2022/07/10 14:56:27;;;;;;;;;;;;;;;;;;;;;
2022/07/10 15:03:49;;;;;;;0.85;0.50;;;;;;;23.35;43.56;99905.25;2006391;96;25846;-80
2022/07/10 15:07:17;;;;;;;0.75;0.40;;;;;;;23.29;43.70;99902.84;2014252;98;25982;-79
2022/07/10 15:10:46;;;;;;;3.42;0.60;;;;;;;23.27;43.75;99904.67;1950450;101;26120;-83
2022/07/10 15:14:12;;;;;;;1.52;1.37;;;;;;;23.19;43.92;99908.09;1955689;98;25972;-80
2022/07/10 15:17:57;;;;;;;;;;;;;;;;;;;;;
2022/07/10 15:21:27;;;;;;;2.00;0.78;;;;;;;23.20;44.10;99908.48;1959752;98;26615;-81
2022/07/10 15:25:40;;;;;;;;;;;;;;;;;;;;;
2022/07/10 15:29:06;;;;;;;0.42;0.33;;;;;;;23.22;44.14;99914.16;1962728;99;26149;-80
2022/07/10 15:32:32;;;;;;;0.85;0.30;;;;;;;23.23;43.97;99918.55;1983055;94;25872;-81
2022/07/10 15:36:00;;;;;;;0.35;0.20;;;;;;;23.24;43.85;99919.41;1967209;97;25864;-79
2022/07/10 15:39:24;;;;;;;1.27;0.30;;;;;;;23.26;44.13;99914.45;1966565;99;44900;-79
2022/07/10 15:42:59;;;;;;;0.93;0.40;;;;;;;23.27;43.79;99912.19;1999786;98;25990;-83
2022/07/10 15:46:36;;;;;;;3.62;0.33;;;;;;;23.35;43.86;99911.90;2004910;95;25867;-76
2022/07/10 15:50:12;;;;;;;1.02;0.40;;;;;;;23.55;44.01;99907.17;2064459;95;25896;-78
2022/07/10 15:53:35;;;;;;;2.52;0.55;;;;;;;23.64;43.80;99909.97;2055926;93;26098;-79
2022/07/10 15:57:08;;;;;;;6.53;1.00;;;;;;;23.63;44.01;99916.22;2130182;89;25787;-79
2022/07/10 16:00:31;;;;;;;0.62;0.50;;;;;;;23.58;44.24;99905.27;2213520;84;25765;-76
2022/07/10 16:04:02;;;;;;;6.47;0.40;;;;;;;23.50;44.09;99910.02;2298046;86;25923;-77
2022/07/10 16:07:32;;;;;;;1.60;0.50;;;;;;;23.48;44.23;99898.55;2339322;84;26374;-79
2022/07/10 16:11:13;;;;;;;3.10;0.70;;;;;;;23.42;43.91;99896.15;2339012;84;25672;-78
2022/07/10 16:14:44;;;;;;;4.33;0.20;;;;;;;23.32;43.73;99893.39;2287415;86;25906;-78
2022/07/10 16:18:14;;;;;;;0.72;0.30;;;;;;;23.26;43.87;99901.15;2285494;86;25755;-79
2022/07/10 16:21:54;;;;;;;0.20;0.15;;;;;;;23.23;43.86;99904.38;2293009;85;25990;-79
2022/07/10 16:29:10;;;;;;;1.40;0.40;;;;;;;23.10;43.93;99902.62;2275730;86;25715;-77
2022/07/10 16:32:32;;;;;;;0.82;0.13;;;;;;;23.01;43.37;99901.61;2276050;86;25933;-80
2022/07/10 16:35:53;;;;;;;3.47;0.33;;;;;;;22.96;43.43;99899.59;2289289;86;26136;-81
2022/07/10 16:39:22;;;;;;;0.20;0.20;;;;;;;22.83;43.02;99895.98;2249479;87;25769;-78
2022/07/10 16:42:49;;;;;;;2.47;0.20;;;;;;;22.77;42.97;99901.97;2249844;87;25945;-81
2022/07/10 16:46:15;;;;;;;0.30;0.15;;;;;;;22.68;43.11;99899.18;2249752;87;25843;-80
2022/07/10 16:49:56;;;;;;;0.28;0.13;;;;;;;22.60;42.66;99895.42;2249473;87;26511;-80
2022/07/10 16:53:53;;;;;;;0.60;0.20;;;;;;;22.49;43.09;99895.39;2204572;88;25759;-80
2022/07/10 16:57:48;;;;;;;0.82;0.30;;;;;;;22.44;43.28;99899.97;2113504;91;25846;-79
2022/07/10 17:05:19;;;;;;;2.60;0.20;;;;;;;22.28;43.42;99908.92;2055788;95;25440;-77
2022/07/10 17:08:57;;;;;;;0.30;0.20;;;;;;;22.22;43.46;99906.45;2063145;94;25873;-78
2022/07/10 17:12:46;;;;;;;1.50;0.68;;;;;;;22.19;43.87;99918.03;2062218;94;25814;-77
2022/07/10 17:16:10;;;;;;;2.20;0.30;;;;;;;22.10;43.85;99919.14;2045618;94;25777;-77
2022/07/10 17:19:42;;;;;;;2.47;0.37;;;;;;;21.95;44.03;99924.94;2031572;97;25846;-80
2022/07/10 17:27:47;;;;;;;0.90;0.20;;;;;;;21.71;44.54;99937.62;1969619;98;26197;-82
2022/07/10 17:31:33;;;;;;;;;;;;;;;;;;;;;
2022/07/10 17:35:14;;;;;;;1.85;0.25;;;;;;;21.50;44.96;99946.61;2012659;96;25841;-82
2022/07/10 17:39:13;;;;;;;;;;;;;;;;;;;;;
2022/07/10 17:47:52;;;;;;;2.47;0.30;;;;;;;21.31;45.68;99952.83;1960325;99;25897;-81
2022/07/10 17:51:56;;;;;;;1.82;0.30;;;;;;;21.23;46.00;99952.18;1966862;98;25870;-81
2022/07/10 17:55:57;;;;;;;;;;;;;;;;;;;;;
2022/07/10 17:59:32;;;;;;;;;;;;;;;;;;;;;
2022/07/10 18:10:25;;;;;;;0.70;0.20;;;;;;;20.59;47.54;99957.34;1977296;97;26654;-80
2022/07/10 18:13:53;;;;;;;0.70;0.40;;;;;;;20.51;47.56;99961.94;1895191;103;26055;-81
2022/07/10 18:17:15;;;;;;;3.83;0.40;;;;;;;20.34;47.92;99963.63;1871641;104;26312;-80
2022/07/10 18:20:43;;;;;;;1.02;0.33;;;;;;;20.27;48.09;99968.19;1828009;105;31456;-81
2022/07/10 18:24:33;;;;;;;;;;;;;;;;;;;;;
2022/07/10 18:28:10;;;;;;;0.85;0.40;;;;;;;20.24;48.37;99974.88;1770475;109;25669;-81
2022/07/10 18:31:46;;;;;;;1.82;0.50;;;;;;;20.03;48.56;99961.67;1784254;108;26409;-83
2022/07/10 18:38:46;;;;;;;0.93;0.37;;;;;;;19.77;49.46;99974.58;1970215;93;25463;-82
2022/07/10 18:42:16;;;;;;;1.25;0.60;;;;;;;19.67;49.69;99973.02;1985792;97;26031;-78
2022/07/10 18:45:42;;;;;;;0.42;0.30;;;;;;;19.56;50.03;99975.84;1998900;97;25836;-78
2022/07/10 18:49:03;;;;;;;3.37;0.72;;;;;;;19.49;50.39;99976.88;2108587;91;25775;-79
2022/07/10 18:52:27;;;;;;;0.70;0.30;;;;;;;19.43;50.49;99984.46;2121674;93;25938;-79
2022/07/10 18:55:47;;;;;;;1.62;0.30;;;;;;;19.39;50.66;99984.56;2123203;93;25937;-78
2022/07/10 18:59:19;;;;;;;0.60;0.30;;;;;;;19.38;50.90;99992.08;2122645;91;26381;-78
2022/07/10 19:02:47;;;;;;;0.80;0.30;;;;;;;19.28;50.88;99982.12;2122765;93;26467;-78
2022/07/10 19:06:49;;;;;;;4.53;0.60;;;;;;;19.22;51.38;99987.52;2127877;91;25709;-76
2022/07/10 19:10:12;;;;;;;0.90;0.60;;;;;;;19.16;51.70;99986.30;2137278;92;25768;-77
2022/07/10 19:13:43;;;;;;;2.08;1.55;;;;;;;19.04;51.87;99994.00;2133779;90;26079;-80
2022/07/10 19:17:12;;;;;;;1.90;0.30;;;;;;;18.97;52.13;99993.69;2123159;91;25697;-79
2022/07/10 19:20:50;;;;;;;2.35;0.57;;;;;;;18.91;52.42;99988.05;2118580;91;25704;-78
2022/07/10 19:24:23;;;;;;;3.95;0.60;;;;;;;19.02;53.12;99993.14;2202405;88;25814;-80
2022/07/10 19:27:45;;;;;;;1.37;0.40;;;;;;;19.05;53.24;99993.96;2271551;86;25798;-81
2022/07/10 19:35:38;;;;;;;3.60;0.50;;;;;;;18.87;53.44;99998.25;2165205;91;25979;-81
2022/07/10 19:39:21;;;;;;;3.52;0.88;;;;;;;18.76;53.47;99991.80;2162330;91;25891;-80
2022/07/10 19:43:03;;;;;;;4.15;0.80;;;;;;;18.48;53.92;99986.05;2160011;90;26094;-83
2022/07/10 19:46:27;;;;;;;1.25;0.80;;;;;;;18.35;54.61;99995.04;2149120;92;25615;-79
2022/07/10 19:49:54;;;;;;;1.52;0.70;;;;;;;18.26;54.84;99985.92;2142348;91;25712;-81
2022/07/10 19:54:01;;;;;;;1.52;0.70;;;;;;;18.12;55.04;99988.76;2037065;97;25619;-87
2022/07/10 19:57:35;;;;;;;;;;;;;;;;;;;;;
2022/07/10 20:01:23;;;;;;;0.80;0.60;;;;;;;18.08;55.76;99988.38;1947433;97;25864;-83
2022/07/10 20:05:11;;;;;;;1.05;0.50;;;;;;;18.09;55.77;99997.61;1943034;99;25805;-85
2022/07/10 20:08:47;;;;;;;1.40;0.65;;;;;;;18.08;56.15;100001.12;1972766;98;25718;-83
2022/07/10 20:12:08;;;;;;;1.47;0.70;;;;;;;18.16;56.21;100012.91;1996030;97;25764;-83
2022/07/10 20:15:51;;;;;;;;;;;;;;;;;;;;;
2022/07/10 20:19:17;;;;;;;3.15;0.60;;;;;;;18.18;56.33;100010.66;1952868;98;26075;-83
2022/07/10 20:23:09;;;;;;;0.62;0.40;;;;;;;18.12;56.58;100013.82;1967289;100;25834;-77
2022/07/10 20:27:23;;;;;;;1.02;0.57;;;;;;;18.06;56.83;100021.84;1963939;98;26141;-82
2022/07/10 20:31:13;;;;;;;2.52;0.70;;;;;;;17.97;56.83;100015.35;1980079;97;25957;-81
2022/07/10 20:38:24;;;;;;;1.20;0.50;;;;;;;17.85;56.98;100013.30;1884106;102;26009;-82
2022/07/10 20:42:35;;;;;;;4.42;0.80;;;;;;;17.77;57.29;100011.64;1859271;103;25661;-81
2022/07/10 20:46:56;;;;;;;1.42;0.57;;;;;;;17.70;57.34;100016.94;1816962;107;25760;-82
2022/07/10 20:50:38;;;;;;;4.55;0.65;;;;;;;17.56;57.45;100016.67;1813219;107;25755;-81
2022/07/10 20:54:13;;;;;;;2.62;0.70;;;;;;;17.50;57.79;100015.42;1842534;98;26167;-80
2022/07/10 20:58:01;;;;;;;1.22;0.68;;;;;;;17.41;57.93;100023.86;1834760;106;26164;-81
2022/07/10 21:01:49;;;;;;;5.50;0.70;;;;;;;17.39;57.95;100013.77;1860271;104;25963;-82
2022/07/10 21:09:29;;;;;;;4.33;1.02;;;;;;;17.43;58.10;100014.61;1858996;105;25756;-85
2022/07/10 21:13:29;;;;;;;;;;;;;;;;;;;;;
2022/07/10 21:24:19;;;;;;;1.95;0.70;;;;;;;17.17;58.33;100028.89;2119392;92;26192;-81
2022/07/10 21:28:36;;;;;;;0.68;0.50;;;;;;;17.13;58.37;100024.54;2107033;92;25837;-79
2022/07/10 21:32:38;;;;;;;1.45;0.80;;;;;;;17.03;58.49;100022.88;2103340;93;25818;-80
2022/07/10 21:36:29;;;;;;;1.65;0.53;;;;;;;16.89;58.74;100019.05;2102444;93;25951;-80
2022/07/10 21:40:12;;;;;;;1.65;0.75;;;;;;;16.86;58.84;100026.97;2096567;93;25905;-80
2022/07/10 21:43:44;;;;;;;2.33;0.78;;;;;;;16.76;58.99;100031.42;2052043;94;25973;-84
2022/07/10 21:47:15;;;;;;;1.05;0.55;;;;;;;16.67;59.16;100030.57;2068657;90;25788;-77
2022/07/10 21:51:14;;;;;;;2.20;0.70;;;;;;;16.62;59.40;100037.64;2053880;93;25785;-78
2022/07/10 21:54:43;;;;;;;1.45;0.72;;;;;;;16.63;59.48;100036.75;2027511;97;25845;-79
2022/07/10 21:58:13;;;;;;;3.10;0.80;;;;;;;16.62;59.70;100049.04;2028160;97;25773;-79
2022/07/10 22:01:40;;;;;;;1.55;0.60;;;;;;;16.63;59.77;100045.96;2016843;97;25905;-79
2022/07/10 22:05:34;;;;;;;2.98;0.78;;;;;;;16.65;59.78;100040.25;2033448;93;25711;-76
2022/07/10 22:09:17;;;;;;;0.95;0.70;;;;;;;16.68;59.79;100045.06;2033655;96;25745;-77
2022/07/10 22:13:03;;;;;;;1.05;0.90;;;;;;;16.62;59.81;100041.14;2032687;97;25750;-77
2022/07/10 22:16:49;;;;;;;;;;;;;;;;;;;;;
2022/07/10 22:20:40;;;;;;;2.37;0.90;;;;;;;16.56;60.09;100050.39;2033577;95;25797;-78
2022/07/10 22:24:19;;;;;;;1.02;0.70;;;;;;;16.52;60.10;100045.59;2097092;92;25788;-78
2022/07/10 22:27:46;;;;;;;1.30;0.90;;;;;;;16.56;60.14;100057.41;2080108;95;31404;-78
2022/07/10 22:31:17;;;;;;;6.62;1.30;;;;;;;16.56;60.13;100053.02;2076587;95;25705;-78
2022/07/10 22:34:45;;;;;;;1.02;0.70;;;;;;;16.51;60.25;100055.69;2144339;91;25335;-78
2022/07/10 22:41:52;;;;;;;1.15;0.68;;;;;;;16.52;60.27;100049.98;2177908;89;25776;-77
2022/07/10 22:45:21;;;;;;;2.08;0.98;;;;;;;16.46;60.32;100047.37;2129471;91;25638;-77